Time;durP1;ratioP1;P1;durP2;ratioP2;P2;SDS_P1;SDS_P2;PMS_P1;PMS_P2;Temp;Humidity;BMP_temperature;BMP_pressure;BME280_temperature;BME280_humidity;BME280_pressure;Samples;Min_cycle;Max_cycle;Signal;HPM_P1;HPM_P2
2023/01/12 00:01:36;;;;;;;3.78;1.08;;;;;;;;;;4999258;28;20044;-76
2023/01/12 00:04:02;;;;;;;3.53;1.10;;;;;;;;;;5002870;28;20774;-76
2023/01/12 00:06:28;;;;;;;6.45;1.33;;;;;;;;;;5002998;28;20146;-75
2023/01/12 00:08:53;;;;;;;4.35;1.38;;;;;;;;;;5004563;28;20033;-75
2023/01/12 00:11:20;;;;;;;6.55;1.65;;;;;;;;;;5011203;28;20052;-75
2023/01/12 00:13:45;;;;;;;6.35;1.27;;;;;;;;;;5004021;28;20467;-76
2023/01/12 00:16:34;;;;;;;3.47;1.40;;;;;;;;;;5004066;28;20033;-76
2023/01/12 00:19:12;;;;;;;4.55;1.15;;;;;;;;;;4997628;28;20030;-76
2023/01/12 00:21:56;;;;;;;6.68;1.60;;;;;;;;;;5007394;28;20038;-75
2023/01/12 00:24:36;;;;;;;4.25;1.60;;;;;;;;;;5002866;28;20569;-75
2023/01/12 00:27:07;;;;;;;6.60;1.73;;;;;;;;;;5000737;28;20026;-76
2023/01/12 00:29:33;;;;;;;5.93;1.77;;;;;;;;;;5004693;28;20056;-76
2023/01/12 00:32:02;;;;;;;6.47;1.48;;;;;;;;;;5002835;28;20045;-76
2023/01/12 00:34:28;;;;;;;6.53;1.83;;;;;;;;;;5002546;28;20029;-76
2023/01/12 00:36:54;;;;;;;6.60;1.92;;;;;;;;;;5004223;28;20084;-76
2023/01/12 00:39:19;;;;;;;8.00;1.88;;;;;;;;;;4997186;28;20112;-76
2023/01/12 00:47:15;;;;;;;8.63;1.90;;;;;;;;;;5007022;28;20039;-76
2023/01/12 00:49:41;;;;;;;8.32;1.90;;;;;;;;;;5008567;28;20378;-76
2023/01/12 00:52:10;;;;;;;7.80;2.28;;;;;;;;;;5015032;28;20080;-75
2023/01/12 00:54:36;;;;;;;5.28;1.48;;;;;;;;;;5002899;28;20108;-75
2023/01/12 00:57:02;;;;;;;7.45;1.65;;;;;;;;;;5011259;28;20029;-75
2023/01/12 00:59:28;;;;;;;6.95;2.00;;;;;;;;;;5004530;28;20022;-75
2023/01/12 01:01:54;;;;;;;5.97;1.75;;;;;;;;;;5001575;28;20473;-76
2023/01/12 01:04:19;;;;;;;10.75;1.90;;;;;;;;;;5000757;28;20025;-75
2023/01/12 01:06:45;;;;;;;6.93;1.92;;;;;;;;;;5003335;28;20068;-75
2023/01/12 01:09:11;;;;;;;7.07;1.95;;;;;;;;;;5007192;28;20109;-75
2023/01/12 01:11:36;;;;;;;8.07;2.30;;;;;;;;;;4999915;28;20029;-75
2023/01/12 01:14:02;;;;;;;7.85;1.73;;;;;;;;;;5000772;28;20064;-76
2023/01/12 01:16:28;;;;;;;7.13;1.70;;;;;;;;;;5002519;28;20033;-75
2023/01/12 01:18:54;;;;;;;11.05;2.28;;;;;;;;;;5002541;28;20072;-76
2023/01/12 01:21:20;;;;;;;6.78;1.77;;;;;;;;;;5001985;28;20103;-76
2023/01/12 01:23:45;;;;;;;6.63;1.65;;;;;;;;;;5001847;28;20057;-76
2023/01/12 01:26:13;;;;;;;5.93;1.90;;;;;;;;;;5002907;28;20022;-76
2023/01/12 01:28:39;;;;;;;8.20;2.10;;;;;;;;;;5005815;28;20037;-75
2023/01/12 01:31:11;;;;;;;6.75;1.80;;;;;;;;;;5010716;28;20021;-76
2023/01/12 01:33:36;;;;;;;6.85;2.00;;;;;;;;;;5004291;28;20135;-75
2023/01/12 01:36:02;;;;;;;7.45;1.77;;;;;;;;;;5014199;28;20489;-76
2023/01/12 01:38:27;;;;;;;8.88;1.98;;;;;;;;;;5006741;28;20109;-76
2023/01/12 01:40:53;;;;;;;9.25;2.17;;;;;;;;;;5001840;28;20018;-75
2023/01/12 01:43:22;;;;;;;7.82;1.88;;;;;;;;;;5009233;28;20030;-76
2023/01/12 01:46:05;;;;;;;5.63;2.28;;;;;;;;;;5001436;28;20053;-76
2023/01/12 01:48:34;;;;;;;5.95;2.10;;;;;;;;;;4998654;28;20540;-76
2023/01/12 01:51:07;;;;;;;6.95;1.73;;;;;;;;;;5002673;28;20065;-75
2023/01/12 01:53:35;;;;;;;7.55;1.95;;;;;;;;;;5002690;28;20486;-76
2023/01/12 01:56:06;;;;;;;9.93;2.45;;;;;;;;;;4999637;28;20164;-76
2023/01/12 01:58:37;;;;;;;6.60;2.17;;;;;;;;;;5003594;28;20557;-75
2023/01/12 02:01:02;;;;;;;6.20;2.00;;;;;;;;;;5001884;28;20021;-75
2023/01/12 02:03:28;;;;;;;6.00;1.75;;;;;;;;;;4998625;28;20048;-76
2023/01/12 02:05:55;;;;;;;5.32;1.73;;;;;;;;;;5001031;28;20084;-76
2023/01/12 02:08:24;;;;;;;4.95;1.33;;;;;;;;;;4997678;28;20033;-76
2023/01/12 02:10:51;;;;;;;7.15;1.65;;;;;;;;;;5002180;28;20570;-76
2023/01/12 02:16:22;;;;;;;7.70;2.08;;;;;;;;;;5002830;28;20115;-76
2023/01/12 02:18:51;;;;;;;8.70;2.00;;;;;;;;;;4998741;28;20442;-76
2023/01/12 02:21:44;;;;;;;8.65;1.45;;;;;;;;;;5005788;28;20386;-76
2023/01/12 02:24:39;;;;;;;8.30;1.88;;;;;;;;;;4987553;28;20040;-76
2023/01/12 02:27:24;;;;;;;8.13;2.03;;;;;;;;;;4965067;28;20423;-76
2023/01/12 02:30:08;;;;;;;7.90;1.40;;;;;;;;;;5005600;28;20121;-76
2023/01/12 02:33:21;;;;;;;6.32;1.40;;;;;;;;;;5007212;28;20034;-76
2023/01/12 02:36:16;;;;;;;8.50;1.30;;;;;;;;;;5002640;28;20041;-76
2023/01/12 02:38:50;;;;;;;5.63;1.30;;;;;;;;;;4996903;28;20510;-75
2023/01/12 02:44:42;;;;;;;6.15;1.77;;;;;;;;;;5005325;28;20124;-75
2023/01/12 02:47:16;;;;;;;8.85;1.75;;;;;;;;;;5005444;28;20033;-76
2023/01/12 02:49:47;;;;;;;10.93;1.92;;;;;;;;;;5008769;28;20036;-76
2023/01/12 02:52:15;;;;;;;3.75;1.35;;;;;;;;;;5020364;28;20034;-76
2023/01/12 02:54:44;;;;;;;9.70;1.88;;;;;;;;;;5007611;28;20076;-76
2023/01/12 02:57:09;;;;;;;6.63;1.73;;;;;;;;;;5007092;28;20520;-76
2023/01/12 02:59:40;;;;;;;8.43;1.67;;;;;;;;;;5005903;28;20022;-76
2023/01/12 03:02:18;;;;;;;10.07;1.83;;;;;;;;;;4999451;28;20765;-76
2023/01/12 03:04:44;;;;;;;7.05;1.60;;;;;;;;;;5001823;28;20522;-76
2023/01/12 03:07:12;;;;;;;6.85;1.95;;;;;;;;;;5006149;28;20125;-76
2023/01/12 03:09:48;;;;;;;6.63;1.80;;;;;;;;;;5016452;28;20030;-75
2023/01/12 03:12:18;;;;;;;10.15;2.08;;;;;;;;;;5001743;28;20556;-76
2023/01/12 03:14:47;;;;;;;8.18;1.60;;;;;;;;;;5020250;28;20028;-76
2023/01/12 03:17:20;;;;;;;10.63;2.22;;;;;;;;;;5001220;28;20026;-76
2023/01/12 03:19:46;;;;;;;;;;;;;;;;;;5003972;28;20103;-76
2023/01/12 03:22:13;;;;;;;6.22;1.40;;;;;;;;;;5004452;28;19964;-76
2023/01/12 03:24:44;;;;;;;7.72;1.70;;;;;;;;;;5009770;28;20423;-75
2023/01/12 03:27:20;;;;;;;6.82;1.60;;;;;;;;;;5001219;28;20037;-75
2023/01/12 03:29:53;;;;;;;4.18;1.10;;;;;;;;;;5007793;28;20030;-76
2023/01/12 03:32:21;;;;;;;6.13;1.50;;;;;;;;;;5008662;28;20022;-76
2023/01/12 03:34:46;;;;;;;6.90;1.60;;;;;;;;;;5005308;28;20041;-76
2023/01/12 03:37:27;;;;;;;4.40;1.20;;;;;;;;;;5004155;28;20034;-76
2023/01/12 03:40:04;;;;;;;5.28;1.33;;;;;;;;;;5005829;28;20470;-76
2023/01/12 03:42:52;;;;;;;6.57;1.52;;;;;;;;;;5019475;28;20025;-75
2023/01/12 03:45:36;;;;;;;8.27;1.42;;;;;;;;;;5005221;28;20029;-76
2023/01/12 03:48:08;;;;;;;6.75;1.10;;;;;;;;;;5000293;28;20036;-76
2023/01/12 03:50:40;;;;;;;5.15;1.33;;;;;;;;;;5016658;28;20474;-76
2023/01/12 03:53:07;;;;;;;6.25;1.20;;;;;;;;;;5000476;28;20462;-76
2023/01/12 03:55:35;;;;;;;5.57;0.98;;;;;;;;;;5003928;28;20508;-77
2023/01/12 03:58:00;;;;;;;7.85;1.08;;;;;;;;;;5003348;28;20038;-76
2023/01/12 04:00:27;;;;;;;4.70;1.33;;;;;;;;;;5003298;28;20044;-76
2023/01/12 04:03:23;;;;;;;7.03;1.27;;;;;;;;;;5001927;28;20033;-76
2023/01/12 04:05:48;;;;;;;4.50;1.30;;;;;;;;;;4996869;28;20397;-76
2023/01/12 04:08:15;;;;;;;4.97;1.10;;;;;;;;;;5001524;28;20026;-76
2023/01/12 04:10:40;;;;;;;5.82;1.02;;;;;;;;;;5003478;28;20194;-77
2023/01/12 04:13:06;;;;;;;6.35;0.98;;;;;;;;;;5004618;28;20173;-76
2023/01/12 04:15:35;;;;;;;5.25;1.02;;;;;;;;;;5006232;28;20038;-76
2023/01/12 04:18:00;;;;;;;6.15;1.00;;;;;;;;;;5007490;28;20029;-76
2023/01/12 04:20:25;;;;;;;6.28;1.10;;;;;;;;;;5002700;28;20544;-77
2023/01/12 04:22:51;;;;;;;4.43;1.00;;;;;;;;;;5009259;28;20108;-76
2023/01/12 04:25:18;;;;;;;7.53;0.90;;;;;;;;;;5011378;28;20033;-77
2023/01/12 04:27:52;;;;;;;5.35;0.98;;;;;;;;;;5004029;28;20034;-77
2023/01/12 04:30:21;;;;;;;6.72;1.05;;;;;;;;;;4999719;28;20030;-76
2023/01/12 04:32:47;;;;;;;10.63;1.25;;;;;;;;;;5006089;28;20060;-76
2023/01/12 04:35:15;;;;;;;5.55;1.10;;;;;;;;;;5020756;28;20982;-76
2023/01/12 04:37:41;;;;;;;4.72;0.90;;;;;;;;;;4999223;28;20052;-77
2023/01/12 04:40:08;;;;;;;4.85;1.00;;;;;;;;;;5007954;28;20466;-76
2023/01/12 04:45:17;;;;;;;2.92;0.70;;;;;;;;;;5003553;28;20049;-76
2023/01/12 04:47:42;;;;;;;6.63;0.98;;;;;;;;;;5002137;28;20389;-76
2023/01/12 04:50:09;;;;;;;4.13;1.20;;;;;;;;;;5002898;28;20549;-76
2023/01/12 04:52:35;;;;;;;4.90;1.05;;;;;;;;;;5003965;28;20552;-77
2023/01/12 04:55:01;;;;;;;3.95;0.80;;;;;;;;;;5006230;28;20041;-76
2023/01/12 04:57:27;;;;;;;6.55;1.10;;;;;;;;;;5005968;28;20029;-77
2023/01/12 04:59:52;;;;;;;6.53;1.10;;;;;;;;;;5000555;28;20037;-76
2023/01/12 05:02:17;;;;;;;4.05;1.25;;;;;;;;;;5005181;28;20026;-76
2023/01/12 05:04:45;;;;;;;3.95;0.98;;;;;;;;;;5008732;28;20049;-76
2023/01/12 05:07:10;;;;;;;5.38;1.02;;;;;;;;;;5001686;28;20541;-76
2023/01/12 05:12:20;;;;;;;4.72;1.08;;;;;;;;;;5006934;28;20115;-77
2023/01/12 05:14:45;;;;;;;3.20;1.42;;;;;;;;;;5004474;28;20038;-77
2023/01/12 05:17:10;;;;;;;8.25;1.23;;;;;;;;;;4999957;28;20431;-77
2023/01/12 05:19:36;;;;;;;2.80;0.90;;;;;;;;;;5008215;28;20022;-77
2023/01/12 05:22:01;;;;;;;5.80;1.92;;;;;;;;;;5005441;28;21776;-77
2023/01/12 05:24:27;;;;;;;5.28;1.00;;;;;;;;;;5002079;28;20140;-77
2023/01/12 05:26:52;;;;;;;3.53;1.00;;;;;;;;;;5001644;28;20068;-76
2023/01/12 05:29:18;;;;;;;5.30;1.00;;;;;;;;;;5000654;28;20076;-77
2023/01/12 05:31:43;;;;;;;3.70;0.93;;;;;;;;;;5005882;28;20398;-77
2023/01/12 05:34:08;;;;;;;3.67;1.00;;;;;;;;;;5003306;28;20029;-77
2023/01/12 05:36:34;;;;;;;6.68;1.00;;;;;;;;;;5010407;28;20052;-77
2023/01/12 05:38:59;;;;;;;2.25;0.80;;;;;;;;;;5003210;28;20467;-77
2023/01/12 05:41:24;;;;;;;3.90;0.75;;;;;;;;;;4998632;28;20072;-77
2023/01/12 05:43:50;;;;;;;2.85;0.60;;;;;;;;;;4993935;28;20113;-78
2023/01/12 05:46:19;;;;;;;7.85;1.08;;;;;;;;;;5016964;28;20398;-77
2023/01/12 05:48:45;;;;;;;2.83;0.80;;;;;;;;;;5001855;28;20042;-77
2023/01/12 05:51:11;;;;;;;2.90;0.80;;;;;;;;;;5001111;28;20037;-77
2023/01/12 05:53:36;;;;;;;2.85;0.88;;;;;;;;;;4997502;28;20039;-78
2023/01/12 05:56:07;;;;;;;3.60;0.52;;;;;;;;;;5001728;28;20041;-77
2023/01/12 05:58:33;;;;;;;4.22;0.85;;;;;;;;;;5000129;28;20477;-77
2023/01/12 06:00:58;;;;;;;5.47;1.15;;;;;;;;;;4996457;28;20022;-77
2023/01/12 06:03:24;;;;;;;3.85;0.68;;;;;;;;;;5010104;28;20144;-78
2023/01/12 06:05:54;;;;;;;2.80;0.75;;;;;;;;;;5010045;28;20041;-77
2023/01/12 06:08:20;;;;;;;4.70;1.00;;;;;;;;;;5002863;28;20026;-77
2023/01/12 06:10:45;;;;;;;2.90;0.70;;;;;;;;;;4999970;28;20033;-77
2023/01/12 06:16:04;;;;;;;3.20;0.80;;;;;;;;;;5005044;28;20041;-77
2023/01/12 06:18:36;;;;;;;3.97;0.88;;;;;;;;;;4999576;28;20028;-77
2023/01/12 06:21:03;;;;;;;2.30;0.80;;;;;;;;;;4999998;28;20052;-77
2023/01/12 06:23:29;;;;;;;3.55;1.00;;;;;;;;;;5000840;28;20456;-77
2023/01/12 06:25:55;;;;;;;5.05;0.90;;;;;;;;;;5001355;28;20109;-78
2023/01/12 06:28:20;;;;;;;4.57;0.85;;;;;;;;;;5000661;28;20140;-77
2023/01/12 06:30:55;;;;;;;2.75;0.73;;;;;;;;;;4997143;28;20044;-78
2023/01/12 06:33:20;;;;;;;2.97;1.08;;;;;;;;;;5016393;28;20044;-78
2023/01/12 06:35:49;;;;;;;2.33;0.80;;;;;;;;;;5002796;28;20033;-77
2023/01/12 06:38:14;;;;;;;2.92;0.95;;;;;;;;;;5000543;28;20030;-78
2023/01/12 06:40:40;;;;;;;2.95;0.88;;;;;;;;;;4999619;28;20092;-78
2023/01/12 06:43:05;;;;;;;2.65;0.85;;;;;;;;;;5001033;28;20025;-77
2023/01/12 06:45:30;;;;;;;2.25;0.80;;;;;;;;;;5017899;28;20037;-77
2023/01/12 06:47:56;;;;;;;2.70;0.80;;;;;;;;;;4999449;28;20053;-78
2023/01/12 06:50:22;;;;;;;1.45;0.70;;;;;;;;;;5015845;28;20402;-78
2023/01/12 06:52:47;;;;;;;3.30;0.80;;;;;;;;;;5000786;28;20026;-78
2023/01/12 06:55:13;;;;;;;2.55;0.75;;;;;;;;;;4999663;28;20123;-77
2023/01/12 06:57:39;;;;;;;3.63;0.70;;;;;;;;;;5001616;28;20518;-78
2023/01/12 07:00:05;;;;;;;1.88;1.00;;;;;;;;;;5004111;28;20033;-78
2023/01/12 07:02:31;;;;;;;3.33;0.90;;;;;;;;;;5000724;28;22277;-78
2023/01/12 07:04:56;;;;;;;1.90;0.68;;;;;;;;;;5005930;28;20044;-78
2023/01/12 07:07:21;;;;;;;2.72;0.82;;;;;;;;;;5001387;28;20041;-78
2023/01/12 07:09:47;;;;;;;2.22;0.73;;;;;;;;;;5000666;28;20168;-78
2023/01/12 07:12:12;;;;;;;2.17;0.70;;;;;;;;;;5002330;28;20057;-78
2023/01/12 07:14:38;;;;;;;2.90;0.73;;;;;;;;;;5007721;28;20037;-78
2023/01/12 07:17:03;;;;;;;2.78;0.73;;;;;;;;;;4994190;28;20034;-78
2023/01/12 07:19:28;;;;;;;2.75;0.70;;;;;;;;;;4999034;28;20040;-78
2023/01/12 07:21:54;;;;;;;1.13;0.60;;;;;;;;;;4998786;28;20029;-78
2023/01/12 07:24:19;;;;;;;2.08;0.75;;;;;;;;;;5012306;28;20037;-78
2023/01/12 07:26:48;;;;;;;1.38;0.50;;;;;;;;;;5008797;28;20022;-78
2023/01/12 07:29:14;;;;;;;3.13;0.80;;;;;;;;;;5023903;28;20030;-78
2023/01/12 07:31:39;;;;;;;3.45;0.90;;;;;;;;;;5002087;28;20040;-79
2023/01/12 07:34:04;;;;;;;2.03;0.77;;;;;;;;;;5026677;28;20478;-78
2023/01/12 07:36:30;;;;;;;3.40;0.90;;;;;;;;;;5003706;28;20038;-78
2023/01/12 07:38:55;;;;;;;1.88;0.80;;;;;;;;;;5003464;28;20492;-78
2023/01/12 07:44:05;;;;;;;2.78;1.00;;;;;;;;;;5007795;28;20098;-78
2023/01/12 07:46:30;;;;;;;1.85;0.80;;;;;;;;;;4986526;28;20065;-78
2023/01/12 07:48:55;;;;;;;3.45;1.27;;;;;;;;;;5010759;28;20128;-78
2023/01/12 07:51:21;;;;;;;2.13;0.80;;;;;;;;;;5025913;28;20489;-78
2023/01/12 07:53:47;;;;;;;2.03;0.90;;;;;;;;;;5004304;28;20042;-78
2023/01/12 07:56:15;;;;;;;2.97;0.90;;;;;;;;;;5007965;28;20105;-78
2023/01/12 07:58:50;;;;;;;5.18;1.10;;;;;;;;;;5014460;28;20033;-78
2023/01/12 08:01:15;;;;;;;2.88;1.10;;;;;;;;;;5020905;28;20054;-78
2023/01/12 08:03:41;;;;;;;1.75;0.90;;;;;;;;;;5010515;28;20064;-78
2023/01/12 08:06:07;;;;;;;2.60;1.02;;;;;;;;;;5015941;28;20428;-79
2023/01/12 08:08:33;;;;;;;2.45;0.88;;;;;;;;;;5005507;28;20026;-78
2023/01/12 08:11:04;;;;;;;4.10;1.08;;;;;;;;;;5009568;28;20034;-78
2023/01/12 08:13:29;;;;;;;2.47;1.20;;;;;;;;;;5007564;28;20025;-78
2023/01/12 08:15:56;;;;;;;4.75;1.23;;;;;;;;;;5010014;28;20025;-78
2023/01/12 08:18:30;;;;;;;1.73;0.82;;;;;;;;;;5008885;28;20079;-78
2023/01/12 08:20:58;;;;;;;3.63;1.00;;;;;;;;;;5027632;28;20052;-78
2023/01/12 08:23:43;;;;;;;2.72;1.02;;;;;;;;;;5011519;28;20485;-78
2023/01/12 08:26:19;;;;;;;2.28;1.30;;;;;;;;;;5008451;28;20037;-78
2023/01/12 08:28:52;;;;;;;1.55;0.93;;;;;;;;;;5008774;28;20060;-78
2023/01/12 08:31:19;;;;;;;;;;;;;;;;;;5003365;28;20021;-78
2023/01/12 08:33:45;;;;;;;2.80;1.27;;;;;;;;;;5007474;28;20286;-79
2023/01/12 08:36:15;;;;;;;3.78;1.60;;;;;;;;;;5010763;28;20026;-78
2023/01/12 08:38:40;;;;;;;3.30;1.30;;;;;;;;;;5004703;28;20027;-79
2023/01/12 08:44:02;;;;;;;3.83;1.20;;;;;;;;;;5004617;28;20076;-78
2023/01/12 08:46:34;;;;;;;2.42;1.17;;;;;;;;;;5022063;28;20033;-78
2023/01/12 08:49:00;;;;;;;4.38;1.48;;;;;;;;;;5010135;28;20382;-78
2023/01/12 08:51:26;;;;;;;2.85;1.30;;;;;;;;;;5028823;28;20050;-78
2023/01/12 08:53:51;;;;;;;3.08;1.23;;;;;;;;;;5005650;28;20064;-79
2023/01/12 08:56:17;;;;;;;2.22;1.20;;;;;;;;;;5010832;28;20026;-79
2023/01/12 08:58:42;;;;;;;4.78;1.48;;;;;;;;;;5012817;28;20375;-79
2023/01/12 09:01:10;;;;;;;2.85;1.20;;;;;;;;;;5012950;28;20068;-78
2023/01/12 09:03:37;;;;;;;6.18;1.55;;;;;;;;;;5009802;28;20033;-79
2023/01/12 09:06:14;;;;;;;2.97;1.23;;;;;;;;;;5026740;28;20684;-79
2023/01/12 09:08:40;;;;;;;1.70;1.10;;;;;;;;;;5009692;28;20108;-78
2023/01/12 09:11:07;;;;;;;1.73;1.10;;;;;;;;;;5020525;28;20046;-78
2023/01/12 09:13:33;;;;;;;2.10;1.20;;;;;;;;;;5009971;28;20053;-78
2023/01/12 09:16:06;;;;;;;2.10;1.00;;;;;;;;;;5013800;28;20060;-78
2023/01/12 09:18:32;;;;;;;2.40;1.13;;;;;;;;;;5026342;28;20064;-79
2023/01/12 09:21:00;;;;;;;2.08;1.00;;;;;;;;;;5013648;28;20026;-78
2023/01/12 09:23:25;;;;;;;4.18;1.20;;;;;;;;;;5021760;28;20113;-79
2023/01/12 09:25:51;;;;;;;2.20;1.10;;;;;;;;;;5007911;28;20149;-78
2023/01/12 09:28:16;;;;;;;1.77;1.02;;;;;;;;;;5009281;28;20104;-79
2023/01/12 09:30:41;;;;;;;2.50;1.17;;;;;;;;;;5011792;28;20030;-79
2023/01/12 09:33:07;;;;;;;1.88;1.00;;;;;;;;;;5009795;28;20026;-79
2023/01/12 09:35:32;;;;;;;2.58;1.10;;;;;;;;;;5006752;28;20088;-78
2023/01/12 09:37:58;;;;;;;1.60;0.98;;;;;;;;;;5010106;28;20030;-79
2023/01/12 09:40:23;;;;;;;1.63;1.00;;;;;;;;;;5010351;28;20022;-78
2023/01/12 09:48:22;;;;;;;1.65;1.00;;;;;;;;;;5011091;28;20036;-79
2023/01/12 09:50:53;;;;;;;1.80;1.00;;;;;;;;;;5008849;28;20544;-78
2023/01/12 09:53:30;;;;;;;2.13;0.90;;;;;;;;;;5008625;28;20054;-78
2023/01/12 09:56:04;;;;;;;1.92;0.90;;;;;;;;;;5011861;28;20025;-79
2023/01/12 09:58:54;;;;;;;1.30;0.90;;;;;;;;;;5018276;28;20490;-79
2023/01/12 10:01:21;;;;;;;1.08;0.75;;;;;;;;;;5002333;28;20021;-79
2023/01/12 10:03:47;;;;;;;1.23;0.80;;;;;;;;;;5004521;28;20033;-79
2023/01/12 10:06:18;;;;;;;1.90;0.85;;;;;;;;;;5004466;28;20565;-79
2023/01/12 10:08:45;;;;;;;1.35;0.90;;;;;;;;;;5002629;28;20038;-79
2023/01/12 10:11:20;;;;;;;1.73;0.80;;;;;;;;;;5002158;28;20532;-79
2023/01/12 10:13:55;;;;;;;1.00;0.80;;;;;;;;;;5001173;28;20041;-79
2023/01/12 10:16:31;;;;;;;1.02;0.80;;;;;;;;;;4998909;28;20393;-79
2023/01/12 10:19:01;;;;;;;1.58;0.90;;;;;;;;;;5003660;28;20481;-79
2023/01/12 10:21:28;;;;;;;2.45;1.20;;;;;;;;;;5007902;28;20049;-78
2023/01/12 10:23:53;;;;;;;3.10;0.82;;;;;;;;;;5008777;28;20025;-79
2023/01/12 10:26:32;;;;;;;1.40;0.77;;;;;;;;;;5009510;28;20032;-79
2023/01/12 10:29:01;;;;;;;2.25;0.90;;;;;;;;;;5004698;28;20512;-79
2023/01/12 10:31:26;;;;;;;1.25;0.80;;;;;;;;;;5001382;28;20058;-79
2023/01/12 10:34:10;;;;;;;2.17;0.90;;;;;;;;;;5006985;28;20077;-79
2023/01/12 10:36:42;;;;;;;0.90;0.70;;;;;;;;;;5015361;28;20096;-79
2023/01/12 10:39:34;;;;;;;1.30;0.65;;;;;;;;;;5007509;28;20096;-79
2023/01/12 10:45:21;;;;;;;0.90;0.60;;;;;;;;;;5008132;28;20512;-79
2023/01/12 10:47:49;;;;;;;1.60;0.70;;;;;;;;;;5008479;28;20041;-79
2023/01/12 10:50:26;;;;;;;0.82;0.65;;;;;;;;;;5005673;28;20376;-78
2023/01/12 10:53:00;;;;;;;3.30;1.30;;;;;;;;;;4999976;28;20478;-79
2023/01/12 10:55:33;;;;;;;1.58;0.90;;;;;;;;;;5005193;28;20022;-79
2023/01/12 10:57:59;;;;;;;1.77;1.10;;;;;;;;;;5008653;28;20056;-79
2023/01/12 11:00:27;;;;;;;2.42;1.00;;;;;;;;;;5013262;28;20034;-79
2023/01/12 11:02:53;;;;;;;1.23;0.77;;;;;;;;;;5018147;28;20037;-79
2023/01/12 11:05:30;;;;;;;1.38;0.90;;;;;;;;;;5016955;28;20033;-79
2023/01/12 11:07:56;;;;;;;1.83;1.20;;;;;;;;;;5014455;28;20052;-78
2023/01/12 11:10:28;;;;;;;1.85;1.20;;;;;;;;;;5015870;28;20041;-79
2023/01/12 11:12:59;;;;;;;1.42;0.93;;;;;;;;;;5012260;28;20065;-79
2023/01/12 11:15:27;;;;;;;2.03;1.15;;;;;;;;;;5013693;28;20520;-79
2023/01/12 11:18:11;;;;;;;1.27;1.05;;;;;;;;;;4999415;28;21278;-79
2023/01/12 11:20:41;;;;;;;1.30;1.00;;;;;;;;;;5010033;28;20048;-79
2023/01/12 11:23:15;;;;;;;1.33;0.90;;;;;;;;;;5018153;28;20025;-79
2023/01/12 11:25:48;;;;;;;1.65;1.10;;;;;;;;;;5007472;28;20033;-79
2023/01/12 11:28:35;;;;;;;2.45;1.02;;;;;;;;;;5017807;28;20406;-79
2023/01/12 11:31:18;;;;;;;1.73;1.13;;;;;;;;;;5012697;28;20080;-79
2023/01/12 11:33:46;;;;;;;;;;;;;;;;;;5018206;28;20038;-79
2023/01/12 11:36:23;;;;;;;1.75;1.02;;;;;;;;;;5012499;28;19917;-79
2023/01/12 11:38:52;;;;;;;4.25;1.42;;;;;;;;;;5014184;28;20392;-79
2023/01/12 11:41:39;;;;;;;1.30;0.90;;;;;;;;;;5013634;28;20026;-79
2023/01/12 11:44:28;;;;;;;1.45;0.98;;;;;;;;;;5016366;28;20037;-79
2023/01/12 11:47:13;;;;;;;1.10;0.90;;;;;;;;;;5016877;28;20092;-79
2023/01/12 11:49:42;;;;;;;1.80;1.02;;;;;;;;;;5032824;28;20065;-79
2023/01/12 11:52:10;;;;;;;4.13;2.15;;;;;;;;;;5016798;28;20033;-79
2023/01/12 11:54:37;;;;;;;1.83;1.10;;;;;;;;;;5016372;28;20104;-79
2023/01/12 11:57:32;;;;;;;1.92;0.80;;;;;;;;;;5014369;28;20173;-79
2023/01/12 12:00:34;;;;;;;1.30;0.82;;;;;;;;;;5006212;28;20064;-79
2023/01/12 12:03:05;;;;;;;1.13;0.77;;;;;;;;;;5006953;28;20384;-79
2023/01/12 12:05:48;;;;;;;1.20;0.80;;;;;;;;;;5023319;28;20030;-79
2023/01/12 12:08:39;;;;;;;1.07;0.77;;;;;;;;;;5005669;28;20025;-79
2023/01/12 12:11:11;;;;;;;1.00;0.80;;;;;;;;;;5012737;28;20084;-80
2023/01/12 12:14:07;;;;;;;3.90;2.25;;;;;;;;;;5002273;28;20120;-79
2023/01/12 12:16:35;;;;;;;1.75;0.80;;;;;;;;;;5001541;28;20030;-79
2023/01/12 12:19:38;;;;;;;1.30;0.80;;;;;;;;;;5009124;28;20084;-79
2023/01/12 12:23:02;;;;;;;1.67;1.10;;;;;;;;;;5007916;28;20030;-79
2023/01/12 12:25:46;;;;;;;1.20;0.80;;;;;;;;;;4964573;28;20375;-79
2023/01/12 12:28:20;;;;;;;1.33;0.88;;;;;;;;;;4961859;28;20491;-79
2023/01/12 12:31:05;;;;;;;1.50;0.82;;;;;;;;;;5006255;28;20044;-79
2023/01/12 12:34:13;;;;;;;2.15;1.17;;;;;;;;;;5019136;28;20037;-79
2023/01/12 12:36:57;;;;;;;2.33;1.00;;;;;;;;;;5013057;28;20087;-79
2023/01/12 12:39:41;;;;;;;2.20;0.90;;;;;;;;;;5008886;28;20185;-79
2023/01/12 12:45:16;;;;;;;1.65;1.05;;;;;;;;;;5002405;28;20675;-79
2023/01/12 12:47:59;;;;;;;2.03;0.90;;;;;;;;;;5003740;28;20749;-79
2023/01/12 12:50:31;;;;;;;2.40;1.00;;;;;;;;;;5003702;28;20124;-79
2023/01/12 12:53:11;;;;;;;4.70;1.00;;;;;;;;;;5011348;28;20026;-79
2023/01/12 12:55:37;;;;;;;2.05;1.10;;;;;;;;;;5008676;28;20041;-78
2023/01/12 12:58:23;;;;;;;1.67;1.23;;;;;;;;;;5004153;28;20453;-79
2023/01/12 13:00:50;;;;;;;2.10;1.27;;;;;;;;;;5011333;28;20026;-79
2023/01/12 13:03:40;;;;;;;2.58;1.40;;;;;;;;;;5000257;28;20756;-79
2023/01/12 13:06:13;;;;;;;1.83;1.30;;;;;;;;;;5002750;28;20025;-79
2023/01/12 13:08:39;;;;;;;;;;;;;;;;;;4999270;28;20381;-79
2023/01/12 13:11:05;;;;;;;1.60;1.10;;;;;;;;;;5004205;28;19925;-79
2023/01/12 13:13:34;;;;;;;3.08;1.40;;;;;;;;;;5017145;28;20037;-79
2023/01/12 13:16:17;;;;;;;2.30;1.33;;;;;;;;;;5002813;28;20033;-79
2023/01/12 13:18:51;;;;;;;;;;;;;;;;;;5003243;28;20040;-80
2023/01/12 13:21:25;;;;;;;1.10;0.77;;;;;;;;;;5003268;28;21306;-80
2023/01/12 13:23:52;;;;;;;1.17;0.90;;;;;;;;;;5001379;28;20044;-80
2023/01/12 13:26:37;;;;;;;1.40;1.00;;;;;;;;;;4999501;28;20034;-80
2023/01/12 13:29:27;;;;;;;1.10;0.95;;;;;;;;;;5002042;28;20129;-79
2023/01/12 13:32:17;;;;;;;1.90;0.93;;;;;;;;;;5001867;28;20394;-80
2023/01/12 13:34:45;;;;;;;1.38;0.90;;;;;;;;;;5002636;28;20075;-79
2023/01/12 13:37:46;;;;;;;0.80;0.60;;;;;;;;;;5005354;28;20025;-80
2023/01/12 13:40:19;;;;;;;1.70;0.90;;;;;;;;;;5003383;28;20402;-79
2023/01/12 13:45:31;;;;;;;1.38;1.00;;;;;;;;;;5008049;28;20060;-80
2023/01/12 13:47:57;;;;;;;1.33;1.00;;;;;;;;;;5023504;28;20457;-79
2023/01/12 13:50:25;;;;;;;2.03;0.95;;;;;;;;;;5009153;28;20064;-79
2023/01/12 13:52:59;;;;;;;3.55;1.10;;;;;;;;;;4999644;28;20053;-80
2023/01/12 13:55:30;;;;;;;1.40;0.90;;;;;;;;;;5006118;28;20169;-80
2023/01/12 13:58:17;;;;;;;1.60;1.00;;;;;;;;;;5003569;28;20038;-80
2023/01/12 14:00:53;;;;;;;1.85;1.00;;;;;;;;;;5003191;28;20026;-79
2023/01/12 14:03:27;;;;;;;1.08;0.90;;;;;;;;;;5004585;28;20025;-80
2023/01/12 14:05:55;;;;;;;1.13;0.90;;;;;;;;;;5014727;28;20396;-80
2023/01/12 14:08:29;;;;;;;1.52;1.08;;;;;;;;;;5007573;28;20057;-79
2023/01/12 14:11:13;;;;;;;1.27;0.85;;;;;;;;;;5001268;28;20034;-80
2023/01/12 14:17:48;;;;;;;1.27;0.90;;;;;;;;;;5011863;28;20709;-80
2023/01/12 14:19:40;;;;;;;1.85;1.08;;;;;;;;;;5000652;28;20084;-80
2023/01/12 14:22:17;;;;;;;1.85;1.10;;;;;;;;;;5003619;28;20053;-80
2023/01/12 14:24:42;;;;;;;1.38;0.95;;;;;;;;;;5011495;28;20036;-80
2023/01/12 14:27:20;;;;;;;1.20;0.90;;;;;;;;;;5003919;28;20025;-80
2023/01/12 14:29:46;;;;;;;1.92;1.00;;;;;;;;;;5003065;28;20029;-80
2023/01/12 14:32:12;;;;;;;1.50;1.10;;;;;;;;;;4998467;28;20072;-80
2023/01/12 14:34:45;;;;;;;1.35;0.90;;;;;;;;;;4999911;28;20026;-80
2023/01/12 14:37:24;;;;;;;1.08;0.85;;;;;;;;;;5001219;28;20033;-80
2023/01/12 14:39:49;;;;;;;1.10;0.90;;;;;;;;;;5000590;28;20026;-80
2023/01/12 14:47:45;;;;;;;1.38;0.90;;;;;;;;;;5001809;28;20111;-80
2023/01/12 14:50:11;;;;;;;1.98;1.10;;;;;;;;;;5000121;28;20041;-80
2023/01/12 14:52:37;;;;;;;2.17;1.50;;;;;;;;;;5000964;28;20030;-80
2023/01/12 14:55:24;;;;;;;3.30;1.23;;;;;;;;;;4999249;28;20032;-80
2023/01/12 14:57:53;;;;;;;1.58;1.08;;;;;;;;;;5000698;28;20381;-80
2023/01/12 15:00:23;;;;;;;1.77;1.20;;;;;;;;;;5016524;28;20018;-80
2023/01/12 15:02:51;;;;;;;2.30;0.93;;;;;;;;;;4997838;28;20029;-80
2023/01/12 15:05:24;;;;;;;1.67;1.00;;;;;;;;;;5002267;28;20144;-80
2023/01/12 15:08:17;;;;;;;1.88;1.00;;;;;;;;;;5002286;28;20065;-80
2023/01/12 15:10:45;;;;;;;1.50;1.02;;;;;;;;;;5002805;28;20929;-80
2023/01/12 15:13:32;;;;;;;4.13;1.27;;;;;;;;;;4998027;28;20030;-80
2023/01/12 15:27:07;;;;;;;1.77;1.30;;;;;;;;;;5004474;28;20064;-80
2023/01/12 15:29:32;;;;;;;1.40;1.02;;;;;;;;;;5004636;28;20132;-80
2023/01/12 15:31:58;;;;;;;2.03;1.08;;;;;;;;;;5006404;28;20120;-80
2023/01/12 15:34:24;;;;;;;1.58;1.00;;;;;;;;;;5006024;28;20026;-80
2023/01/12 15:36:49;;;;;;;1.75;1.10;;;;;;;;;;5004155;28;20125;-80
2023/01/12 15:39:14;;;;;;;1.92;1.10;;;;;;;;;;5001061;28;20034;-80
2023/01/12 15:44:24;;;;;;;1.55;1.10;;;;;;;;;;5010409;28;20068;-80
2023/01/12 15:46:50;;;;;;;2.08;1.10;;;;;;;;;;5007337;28;20486;-80
2023/01/12 15:49:15;;;;;;;1.83;1.10;;;;;;;;;;5006722;28;20034;-80
2023/01/12 15:51:45;;;;;;;1.73;1.08;;;;;;;;;;5006178;28;20084;-80
2023/01/12 15:54:12;;;;;;;2.40;1.30;;;;;;;;;;5009103;28;20045;-80
2023/01/12 15:56:37;;;;;;;1.42;1.02;;;;;;;;;;5001910;28;20393;-80
2023/01/12 15:59:03;;;;;;;1.60;1.30;;;;;;;;;;5017039;28;20030;-80
2023/01/12 16:01:47;;;;;;;1.98;1.15;;;;;;;;;;5004932;28;21712;-80
2023/01/12 16:04:14;;;;;;;1.90;1.20;;;;;;;;;;5008846;28;20022;-80
2023/01/12 16:06:40;;;;;;;1.70;1.15;;;;;;;;;;5006294;28;20029;-80
2023/01/12 16:09:05;;;;;;;2.33;1.48;;;;;;;;;;5034194;28;20556;-80